Time;durP1;ratioP1;P1;durP2;ratioP2;P2;SDS_P1;SDS_P2;PMS_P1;PMS_P2;Temp;Humidity;BMP_temperature;BMP_pressure;BME280_temperature;BME280_humidity;BME280_pressure;Samples;Min_cycle;Max_cycle;Signal;HPM_P1;HPM_P2
2022/02/01 00:02:10;;;;;;;32.73;9.80;;;-0.60;96.30;;;;;;5032024;28;20446;-70
2022/02/01 00:04:45;;;;;;;22.00;10.03;;;-0.60;96.30;;;;;;5031629;28;20464;-70
2022/02/01 00:07:22;;;;;;;16.03;9.03;;;-0.60;96.30;;;;;;5032093;28;20811;-71
2022/02/01 00:10:03;;;;;;;32.63;8.40;;;-0.60;96.30;;;;;;5021651;28;20438;-70
2022/02/01 00:16:00;;;;;;;24.40;9.70;;;-0.60;96.30;;;;;;5012118;28;20829;-70
2022/02/01 00:18:37;;;;;;;16.53;7.30;;;-0.60;96.30;;;;;;5011812;28;20444;-70
2022/02/01 00:37:30;;;;;;;42.67;13.60;;;-0.60;96.30;;;;;;5015739;28;20927;-70
2022/02/01 00:39:58;;;;;;;37.67;10.40;;;-0.60;96.30;;;;;;5015672;28;20423;-70
2022/02/01 00:42:24;;;;;;;31.93;12.10;;;-0.60;96.30;;;;;;5015502;28;20459;-70
2022/02/01 00:44:49;;;;;;;30.13;10.60;;;-0.70;96.30;;;;;;5015153;28;20502;-70
2022/02/01 00:47:15;;;;;;;34.27;9.40;;;-0.70;96.30;;;;;;5015357;28;20207;-70
2022/02/01 00:49:42;;;;;;;43.23;11.10;;;-0.70;96.30;;;;;;5014261;28;20280;-70
2022/02/01 00:52:08;;;;;;;31.10;11.17;;;-0.70;96.30;;;;;;5015370;28;20488;-70
2022/02/01 00:54:34;;;;;;;26.97;10.60;;;-0.70;96.30;;;;;;5015058;28;20828;-70
2022/02/01 00:56:59;;;;;;;29.67;11.00;;;-0.70;96.30;;;;;;5015275;28;20470;-70
2022/02/01 00:59:25;;;;;;;26.83;11.03;;;-0.60;96.30;;;;;;5015280;28;20408;-70
2022/02/01 05:02:36;;;;;;;9.73;5.47;;;-1.10;96.30;;;;;;5007613;28;20818;-71
2022/02/01 05:05:01;;;;;;;11.00;6.00;;;-1.10;96.30;;;;;;5009844;28;20478;-72
2022/02/01 05:07:27;;;;;;;11.43;6.47;;;-1.10;96.30;;;;;;5011544;28;20165;-71
2022/02/01 05:09:54;;;;;;;9.83;6.43;;;-1.10;96.30;;;;;;5011059;28;20173;-71
2022/02/01 05:12:20;;;;;;;14.60;6.03;;;-1.20;96.30;;;;;;5014604;28;20292;-70
2022/02/01 05:14:46;;;;;;;11.13;6.20;;;-1.30;96.30;;;;;;5017004;28;20432;-71
2022/02/01 05:17:12;;;;;;;13.00;6.17;;;-1.40;96.30;;;;;;5020904;28;20200;-72
2022/02/01 05:35:52;;;;;;;11.83;7.40;;;-1.40;96.30;;;;;;5015009;28;20399;-72
2022/02/01 05:38:18;;;;;;;11.77;7.90;;;-1.30;96.30;;;;;;5010832;28;20419;-72
2022/02/01 06:07:04;;;;;;;20.03;9.67;;;-1.20;96.30;;;;;;6069803;23;20462;-71
2022/02/01 06:09:29;;;;;;;15.13;9.60;;;-1.20;96.30;;;;;;5008458;28;20980;-72
2022/02/01 06:27:27;;;;;;;15.73;10.43;;;-1.00;96.30;;;;;;3348840;26;20473;-71
2022/02/01 06:29:54;;;;;;;18.63;11.03;;;-1.00;96.30;;;;;;5053563;28;20463;-71
2022/02/01 06:32:20;;;;;;;16.13;9.67;;;-1.00;96.30;;;;;;5053222;28;20509;-71
2022/02/01 06:34:45;;;;;;;15.30;11.20;;;-1.00;96.30;;;;;;5052764;28;20484;-71
2022/02/01 06:37:11;;;;;;;18.33;10.73;;;-1.00;96.30;;;;;;5016321;28;20200;-71
2022/02/01 06:39:43;;;;;;;17.33;10.73;;;-1.00;96.30;;;;;;5025225;28;20176;-71
2022/02/01 06:42:09;;;;;;;17.10;9.30;;;-1.00;96.30;;;;;;5017839;28;20202;-71
2022/02/01 06:44:35;;;;;;;15.80;9.77;;;-1.00;96.30;;;;;;5032513;28;20406;-71
2022/02/01 06:47:00;;;;;;;17.40;9.80;;;-1.00;96.30;;;;;;5032805;28;20409;-72
2022/02/01 06:49:26;;;;;;;13.83;8.80;;;-1.00;96.30;;;;;;5015277;28;20238;-71
2022/02/01 06:51:51;;;;;;;15.23;10.40;;;-1.00;96.30;;;;;;5033001;28;20195;-70
2022/02/01 06:54:17;;;;;;;13.53;9.50;;;-1.00;96.30;;;;;;5031136;28;20175;-70
2022/02/01 06:56:42;;;;;;;14.33;10.33;;;-1.00;96.30;;;;;;5039456;28;20270;-71
2022/02/01 06:59:08;;;;;;;13.33;9.70;;;-1.00;96.30;;;;;;5042599;28;20659;-70
2022/02/01 07:01:34;;;;;;;12.97;8.83;;;-1.00;96.30;;;;;;5018023;28;20857;-71
2022/02/01 07:04:00;;;;;;;14.00;9.43;;;-1.00;96.30;;;;;;5033052;28;20184;-71
2022/02/01 07:06:29;;;;;;;10.60;7.97;;;-0.90;96.30;;;;;;5032083;28;20598;-71
2022/02/01 07:08:55;;;;;;;13.30;9.00;;;-0.90;96.30;;;;;;5038147;28;20450;-71
2022/02/01 07:21:48;;;;;;;9.50;6.80;;;-0.80;96.30;;;;;;6100131;22;20504;-70
2022/02/01 07:24:17;;;;;;;6.20;4.93;;;-0.70;96.30;;;;;;5049668;28;20584;-70
2022/02/01 07:26:53;;;;;;;10.13;6.10;;;-0.80;96.30;;;;;;5052159;28;20865;-71
2022/02/01 07:29:18;;;;;;;7.30;4.97;;;-0.70;96.30;;;;;;5034487;28;20468;-70
2022/02/01 07:31:44;;;;;;;8.83;5.67;;;-0.70;96.30;;;;;;5065329;28;20425;-71
2022/02/01 07:34:11;;;;;;;7.10;5.17;;;-0.70;96.30;;;;;;5071667;28;20178;-70
2022/02/01 07:36:37;;;;;;;7.13;5.37;;;-0.60;96.30;;;;;;5053961;28;20181;-70
2022/02/01 07:39:02;;;;;;;9.87;6.30;;;-0.60;96.30;;;;;;5072376;28;20413;-71
2022/02/01 07:49:17;;;;;;;11.93;5.70;;;-0.50;96.30;;;;;;5838120;23;20493;-71
2022/02/01 07:54:18;;;;;;;17.23;6.50;;;-0.50;96.30;;;;;;5068298;23;20567;-70
2022/02/01 07:56:44;;;;;;;13.20;5.70;;;-0.40;96.30;;;;;;5052282;28;20793;-71
2022/02/01 07:59:09;;;;;;;15.03;6.10;;;-0.40;96.30;;;;;;5052255;28;20237;-70
2022/02/01 08:04:10;;;;;;;12.40;6.03;;;-0.40;96.30;;;;;;5215940;23;20280;-70
2022/02/01 08:06:36;;;;;;;12.13;6.07;;;-0.40;96.30;;;;;;5033692;28;20454;-70
2022/02/01 08:09:10;;;;;;;10.60;5.50;;;-0.30;96.30;;;;;;5051934;28;20662;-70
2022/02/01 08:11:36;;;;;;;8.07;4.27;;;-0.30;96.30;;;;;;5050311;28;20291;-70
2022/02/01 08:15:04;;;;;;;9.50;5.57;;;-0.30;96.30;;;;;;5033918;28;20442;-70
2022/02/01 08:17:10;;;;;;;9.63;5.20;;;-0.30;96.30;;;;;;5051433;28;20163;-70
2022/02/01 08:22:08;;;;;;;9.50;4.73;;;-0.20;96.30;;;;;;5051852;28;20422;-70
2022/02/01 08:24:33;;;;;;;9.97;4.40;;;-0.10;96.30;;;;;;5051755;28;20167;-70
2022/02/01 08:26:59;;;;;;;11.13;5.30;;;0.00;96.30;;;;;;5051758;28;20877;-71
2022/02/01 08:29:24;;;;;;;13.87;5.40;;;0.10;96.30;;;;;;5051873;28;20168;-70
2022/02/01 08:34:25;;;;;;;9.40;4.40;;;0.10;96.30;;;;;;5607269;23;20228;-71
2022/02/01 08:36:51;;;;;;;14.93;4.60;;;0.10;96.30;;;;;;5027956;28;20446;-71
2022/02/01 08:39:17;;;;;;;13.60;3.93;;;0.10;96.30;;;;;;5031817;28;20198;-70
2022/02/01 08:46:53;;;;;;;10.93;4.90;;;0.10;96.30;;;;;;5572286;23;20495;-70
2022/02/01 08:49:19;;;;;;;12.10;5.10;;;0.20;96.30;;;;;;5015594;28;20406;-70
2022/02/01 09:04:37;;;;;;;8.13;2.90;;;0.30;96.30;;;;;;5046866;23;20503;-70
2022/02/01 09:07:03;;;;;;;12.33;4.17;;;0.30;96.30;;;;;;5014885;28;20420;-70
2022/02/01 09:09:30;;;;;;;14.33;3.60;;;0.20;96.30;;;;;;5015248;28;20624;-70
2022/02/01 09:11:56;;;;;;;8.43;3.27;;;0.30;96.30;;;;;;5014585;28;20435;-71
2022/02/01 09:14:22;;;;;;;15.57;4.27;;;0.30;96.30;;;;;;5014754;28;20431;-70
2022/02/01 09:16:48;;;;;;;11.47;3.27;;;0.40;96.30;;;;;;5015026;28;20423;-71
2022/02/01 09:19:14;;;;;;;17.93;3.17;;;0.40;96.30;;;;;;5015144;28;20419;-70
2022/02/01 09:21:40;;;;;;;9.60;3.60;;;0.40;96.30;;;;;;5015112;28;20843;-70
2022/02/01 09:24:07;;;;;;;10.40;3.30;;;0.40;96.30;;;;;;5014843;28;20907;-70
2022/02/01 09:26:33;;;;;;;19.47;2.90;;;0.40;96.30;;;;;;5012195;28;20456;-71
2022/02/01 09:28:58;;;;;;;16.90;3.67;;;0.50;96.30;;;;;;5014780;28;20420;-71
2022/02/01 09:31:24;;;;;;;11.57;2.43;;;0.60;96.30;;;;;;5013274;28;20436;-70
2022/02/01 09:33:49;;;;;;;14.57;2.97;;;0.60;96.30;;;;;;5014808;28;20169;-70
2022/02/01 09:36:15;;;;;;;9.27;2.90;;;0.70;96.30;;;;;;5014622;28;20169;-70
2022/02/01 09:38:41;;;;;;;12.50;3.00;;;0.60;96.30;;;;;;5014780;28;20173;-70
2022/02/01 09:41:07;;;;;;;4.70;2.20;;;0.60;96.30;;;;;;5014676;28;20284;-71
2022/02/01 09:43:33;;;;;;;12.23;2.70;;;0.60;96.30;;;;;;5008588;28;20444;-70
2022/02/01 09:46:00;;;;;;;11.20;2.90;;;0.60;96.30;;;;;;4994779;28;20204;-71
2022/02/01 09:48:27;;;;;;;10.37;2.23;;;0.60;96.30;;;;;;4994861;28;20417;-70
2022/02/01 09:50:52;;;;;;;10.40;3.00;;;0.70;96.30;;;;;;4994851;28;20495;-70
2022/02/01 09:53:19;;;;;;;18.13;2.93;;;0.60;96.30;;;;;;4994754;28;20412;-70
2022/02/01 09:55:46;;;;;;;11.50;2.57;;;0.80;96.30;;;;;;4994285;28;20669;-70
2022/02/01 09:58:12;;;;;;;9.20;2.90;;;0.90;96.30;;;;;;4994018;28;20435;-70
2022/02/01 10:00:45;;;;;;;7.80;2.03;;;0.90;96.30;;;;;;4994338;28;20425;-70
2022/02/01 10:03:16;;;;;;;19.13;3.63;;;0.90;96.30;;;;;;4994472;28;20428;-70
2022/02/01 10:05:43;;;;;;;14.37;2.90;;;1.00;96.30;;;;;;4994299;28;20868;-71
2022/02/01 10:08:09;;;;;;;10.00;2.33;;;1.10;96.30;;;;;;5009219;28;20469;-70
2022/02/01 10:10:34;;;;;;;14.93;3.50;;;1.00;96.30;;;;;;5013377;28;20448;-70
2022/02/01 10:13:18;;;;;;;14.47;2.90;;;0.90;96.30;;;;;;5012991;28;20769;-71
2022/02/01 10:16:01;;;;;;;11.13;2.57;;;0.90;96.30;;;;;;5013308;28;20177;-70
2022/02/01 10:18:33;;;;;;;27.20;3.33;;;0.80;96.30;;;;;;5013770;28;20496;-70
2022/02/01 10:21:13;;;;;;;14.40;2.13;;;0.90;96.30;;;;;;5012324;28;20787;-70
2022/02/01 10:23:40;;;;;;;9.20;2.10;;;0.80;96.30;;;;;;5013769;28;20420;-69
2022/02/01 10:26:11;;;;;;;12.83;2.63;;;0.70;96.30;;;;;;4996275;28;20470;-71
2022/02/01 10:29:04;;;;;;;9.70;1.97;;;0.80;96.30;;;;;;4992812;28;20496;-70
2022/02/01 10:31:50;;;;;;;7.77;2.80;;;0.80;96.30;;;;;;5009207;28;20538;-70
2022/02/01 10:34:40;;;;;;;18.53;2.63;;;0.80;96.30;;;;;;5006573;28;20468;-70
2022/02/01 10:37:25;;;;;;;17.50;2.70;;;0.90;96.30;;;;;;5012773;28;20438;-71
2022/02/01 10:40:05;;;;;;;6.43;2.00;;;1.00;96.30;;;;;;5013069;28;20412;-70
2022/02/01 10:42:31;;;;;;;14.90;3.00;;;1.00;96.30;;;;;;5008819;28;20803;-70
2022/02/01 10:44:58;;;;;;;8.53;2.40;;;0.90;96.30;;;;;;5012920;28;20415;-70
2022/02/01 10:47:42;;;;;;;8.90;2.30;;;0.90;96.30;;;;;;5013145;28;20204;-70
2022/02/01 10:50:12;;;;;;;14.77;2.90;;;1.10;96.30;;;;;;5013246;28;20927;-70
2022/02/01 10:52:41;;;;;;;12.63;2.50;;;1.20;96.30;;;;;;5013147;28;20408;-70
2022/02/01 10:55:09;;;;;;;10.30;2.27;;;1.20;96.30;;;;;;5012264;28;20408;-72
2022/02/01 10:57:34;;;;;;;13.20;2.20;;;1.10;96.30;;;;;;5012996;28;20422;-70
2022/02/01 11:00:01;;;;;;;9.83;2.33;;;1.10;96.30;;;;;;5011998;28;20423;-70
2022/02/01 11:02:28;;;;;;;10.30;2.20;;;1.00;96.30;;;;;;4995706;28;20573;-71
2022/02/01 11:04:54;;;;;;;13.03;2.30;;;1.00;96.30;;;;;;4992720;28;20432;-70
2022/02/01 11:07:20;;;;;;;12.80;2.83;;;1.00;96.30;;;;;;4991751;28;20947;-70
2022/02/01 11:09:46;;;;;;;12.77;2.90;;;1.10;96.30;;;;;;5001233;28;20656;-70
2022/02/01 11:12:13;;;;;;;7.20;2.40;;;1.10;96.30;;;;;;5012846;28;20436;-70
2022/02/01 11:14:42;;;;;;;12.60;2.73;;;1.20;96.30;;;;;;5012959;28;20633;-70
2022/02/01 11:17:11;;;;;;;7.57;2.67;;;1.00;96.30;;;;;;5013604;28;20412;-70
2022/02/01 11:19:47;;;;;;;10.10;1.57;;;0.80;96.30;;;;;;5012836;28;20417;-71
2022/02/01 11:22:20;;;;;;;4.13;1.40;;;1.00;96.30;;;;;;5012598;28;20794;-71
2022/02/01 11:24:51;;;;;;;17.07;2.67;;;1.00;96.30;;;;;;5012386;28;20395;-71
2022/02/01 11:27:19;;;;;;;9.70;2.50;;;1.00;96.30;;;;;;5012543;28;20423;-70
2022/02/01 11:32:31;;;;;;;10.03;2.00;;;1.10;96.30;;;;;;5012812;28;21011;-70
2022/02/01 11:35:12;;;;;;;16.03;2.47;;;1.00;96.30;;;;;;5012422;28;20434;-71
2022/02/01 11:37:54;;;;;;;9.20;2.40;;;1.20;96.30;;;;;;5012649;28;20454;-70
2022/02/01 11:40:23;;;;;;;9.43;2.23;;;1.10;96.30;;;;;;5012374;28;20422;-70
2022/02/01 11:43:04;;;;;;;6.63;1.27;;;1.20;96.30;;;;;;5012563;28;20400;-70
2022/02/01 11:45:37;;;;;;;8.50;1.80;;;1.20;96.30;;;;;;5012167;28;20458;-70
2022/02/01 11:48:23;;;;;;;6.17;1.43;;;1.20;96.30;;;;;;5012395;28;20411;-70
2022/02/01 11:50:54;;;;;;;7.03;1.73;;;1.20;96.30;;;;;;5012324;28;20846;-70
2022/02/01 11:53:29;;;;;;;7.63;1.50;;;1.50;96.30;;;;;;5011151;28;20420;-70
2022/02/01 11:55:56;;;;;;;10.50;2.00;;;1.60;96.30;;;;;;5012129;28;20958;-71
2022/02/01 11:58:33;;;;;;;3.70;1.30;;;1.70;96.30;;;;;;5012254;28;20416;-70
2022/02/01 12:01:01;;;;;;;7.30;1.50;;;2.00;96.30;;;;;;5012168;28;20466;-70
2022/02/01 12:03:29;;;;;;;13.60;1.93;;;2.00;96.30;;;;;;5012050;28;20431;-70
2022/02/01 12:05:59;;;;;;;8.00;1.57;;;2.00;96.30;;;;;;5012049;28;20451;-70
2022/02/01 12:08:31;;;;;;;11.13;2.07;;;1.80;96.30;;;;;;5010969;28;20478;-70
2022/02/01 12:10:59;;;;;;;5.60;1.83;;;1.60;96.30;;;;;;5012117;28;20443;-70
2022/02/01 12:13:26;;;;;;;8.73;1.87;;;1.80;96.30;;;;;;5012094;28;20799;-70
2022/02/01 12:15:54;;;;;;;9.80;1.93;;;1.80;96.30;;;;;;5011980;28;20439;-70
2022/02/01 12:18:28;;;;;;;6.23;1.73;;;1.80;96.30;;;;;;5012027;28;20569;-71
2022/02/01 12:21:31;;;;;;;4.27;1.63;;;1.70;96.30;;;;;;5014820;28;20434;-70
2022/02/01 12:24:05;;;;;;;7.70;1.77;;;1.70;96.30;;;;;;5015834;28;20443;-70
2022/02/01 12:26:33;;;;;;;6.00;1.77;;;1.80;96.30;;;;;;5015819;28;20831;-70
2022/02/01 12:29:00;;;;;;;10.47;2.43;;;1.70;96.30;;;;;;5015969;28;20530;-70
2022/02/01 12:31:28;;;;;;;5.77;1.57;;;1.70;96.30;;;;;;5003774;28;20583;-70
2022/02/01 12:33:57;;;;;;;3.93;1.33;;;1.70;96.30;;;;;;5003279;28;20776;-72
2022/02/01 12:36:30;;;;;;;4.57;1.97;;;1.60;96.30;;;;;;5008898;28;20456;-70
2022/02/01 12:39:05;;;;;;;5.70;1.27;;;1.50;96.30;;;;;;5015476;28;20807;-70
2022/02/01 12:41:42;;;;;;;5.80;2.00;;;1.70;96.30;;;;;;5015632;28;20954;-70
2022/02/01 12:46:56;;;;;;;6.63;2.03;;;1.70;96.30;;;;;;5015332;28;20509;-71
2022/02/01 12:49:36;;;;;;;4.70;2.10;;;1.80;96.30;;;;;;5012861;28;20411;-71
2022/02/01 12:52:24;;;;;;;12.90;2.30;;;1.80;96.30;;;;;;4994629;28;20526;-71
2022/02/01 12:55:15;;;;;;;7.30;1.83;;;1.70;96.30;;;;;;4995175;28;20482;-71
2022/02/01 12:57:42;;;;;;;7.17;2.30;;;1.70;96.30;;;;;;4995811;28;20893;-71
2022/02/01 13:00:12;;;;;;;8.40;2.33;;;1.50;96.30;;;;;;4995915;28;20412;-71
2022/02/01 13:02:38;;;;;;;6.83;1.27;;;1.50;96.30;;;;;;4995677;28;20404;-71
2022/02/01 13:05:12;;;;;;;3.17;1.30;;;1.50;96.30;;;;;;5011977;28;20446;-71
2022/02/01 13:15:42;;;;;;;5.20;1.47;;;1.20;96.30;;;;;;5014886;28;20403;-71
2022/02/01 13:20:55;;;;;;;6.60;2.23;;;1.60;96.30;;;;;;5015222;28;21165;-72
2022/02/01 13:23:21;;;;;;;3.77;1.53;;;1.50;96.30;;;;;;5015006;28;20415;-72
2022/02/01 13:25:46;;;;;;;8.93;1.40;;;1.30;96.30;;;;;;5014538;28;20439;-72
2022/02/01 13:28:14;;;;;;;2.80;1.10;;;1.10;96.30;;;;;;5014768;28;20180;-72
2022/02/01 13:30:43;;;;;;;3.27;1.40;;;1.10;96.30;;;;;;5014418;28;20189;-72
2022/02/01 13:33:10;;;;;;;2.57;1.50;;;1.20;96.30;;;;;;5013955;28;20430;-72
2022/02/01 13:35:50;;;;;;;7.03;1.80;;;1.20;96.30;;;;;;5011491;28;20415;-72
2022/02/01 13:38:16;;;;;;;2.13;1.20;;;1.10;96.30;;;;;;5014676;28;20989;-72
2022/02/01 13:40:41;;;;;;;3.23;1.80;;;0.90;96.30;;;;;;5014434;28;20470;-72
2022/02/01 13:43:20;;;;;;;2.83;1.80;;;1.00;96.30;;;;;;5014449;28;20510;-72
2022/02/01 13:45:48;;;;;;;4.20;1.63;;;0.80;96.30;;;;;;5014250;28;20557;-71
2022/02/01 13:48:22;;;;;;;3.33;1.70;;;0.70;96.30;;;;;;5014409;28;20416;-72
2022/02/01 13:50:48;;;;;;;4.00;1.67;;;0.80;96.30;;;;;;5011139;28;20794;-72
2022/02/01 13:53:14;;;;;;;3.77;1.97;;;0.80;96.30;;;;;;4994815;28;20420;-71
2022/02/01 13:55:41;;;;;;;3.17;1.83;;;0.80;96.30;;;;;;4994378;28;20542;-72
2022/02/01 13:58:11;;;;;;;2.07;1.33;;;0.80;96.30;;;;;;4994702;28;20432;-72
2022/02/01 14:00:42;;;;;;;6.13;2.47;;;1.00;96.30;;;;;;4993319;28;20503;-71
2022/02/01 14:03:39;;;;;;;3.33;1.53;;;1.00;96.30;;;;;;4994537;28;20984;-71
2022/02/01 14:06:20;;;;;;;4.23;2.53;;;0.90;96.30;;;;;;4993976;28;20456;-71
2022/02/01 14:22:26;;;;;;;3.77;1.80;;;0.90;96.30;;;;;;5013587;28;20423;-71
2022/02/01 14:34:58;;;;;;;2.33;1.23;;;0.70;96.30;;;;;;5013338;28;20965;-72
2022/02/01 14:45:11;;;;;;;4.70;1.10;;;0.70;96.30;;;;;;5013416;28;20465;-72
2022/02/01 14:47:38;;;;;;;5.10;2.20;;;0.70;96.30;;;;;;5013310;28;20447;-72
2022/02/01 14:50:05;;;;;;;2.63;0.97;;;0.70;96.30;;;;;;5001424;28;20416;-71
2022/02/01 14:52:31;;;;;;;2.07;0.80;;;0.70;96.30;;;;;;5012431;28;20200;-72
2022/02/01 14:55:04;;;;;;;1.50;0.80;;;0.70;96.30;;;;;;5009853;28;20423;-71
2022/02/01 15:06:30;;;;;;;5.47;1.30;;;0.70;96.30;;;;;;4993197;28;20463;-71
2022/02/01 15:11:33;;;;;;;3.03;0.90;;;0.70;96.30;;;;;;5012589;28;20492;-72
2022/02/01 15:13:59;;;;;;;1.83;0.80;;;0.70;96.30;;;;;;4993310;28;20405;-73
2022/02/01 15:16:24;;;;;;;3.07;0.90;;;0.70;96.30;;;;;;4993031;28;20900;-71
2022/02/01 15:18:50;;;;;;;1.70;0.80;;;0.70;96.30;;;;;;4993093;28;20173;-71
2022/02/01 15:21:15;;;;;;;1.57;0.97;;;0.70;96.30;;;;;;4991839;28;20201;-72
2022/02/01 15:23:42;;;;;;;1.67;0.90;;;0.80;96.30;;;;;;4997356;28;20177;-71
2022/02/01 15:26:08;;;;;;;1.30;0.90;;;0.80;96.30;;;;;;5011779;28;20263;-71
2022/02/01 15:28:33;;;;;;;3.13;0.90;;;0.90;96.30;;;;;;5012771;28;20884;-72
2022/02/01 15:31:02;;;;;;;1.20;0.70;;;0.90;96.30;;;;;;5012642;28;20192;-72
2022/02/01 15:33:29;;;;;;;1.20;0.80;;;1.00;96.30;;;;;;5011272;28;20181;-72
2022/02/01 15:35:59;;;;;;;4.20;0.80;;;1.00;96.30;;;;;;5012507;28;20420;-72
2022/02/01 15:38:30;;;;;;;0.80;0.70;;;1.10;96.30;;;;;;5012546;28;20414;-71
2022/02/01 15:57:32;;;;;;;0.90;0.60;;;1.10;96.30;;;;;;4992440;28;20519;-71
2022/02/01 16:00:00;;;;;;;3.33;1.07;;;1.10;96.30;;;;;;4997046;28;20770;-71
2022/02/01 16:02:27;;;;;;;1.10;0.60;;;1.10;96.30;;;;;;4995326;28;20448;-71
2022/02/01 16:04:55;;;;;;;1.93;0.90;;;1.10;96.30;;;;;;4991161;28;20532;-71
2022/02/01 16:07:22;;;;;;;1.87;0.80;;;1.10;96.30;;;;;;4992574;28;20416;-71
2022/02/01 16:10:06;;;;;;;6.50;3.90;;;1.10;96.30;;;;;;5004697;28;20423;-72
2022/02/01 16:12:37;;;;;;;0.90;0.60;;;1.10;96.30;;;;;;5008098;28;20469;-71
2022/02/01 16:15:03;;;;;;;0.97;0.60;;;1.10;96.30;;;;;;5011930;28;20416;-71
2022/02/01 16:17:29;;;;;;;3.30;0.70;;;1.10;96.30;;;;;;5006182;28;20427;-71
2022/02/01 16:19:54;;;;;;;0.90;0.60;;;1.10;96.30;;;;;;5012173;28;20180;-71
2022/02/01 16:22:20;;;;;;;0.90;0.70;;;1.10;96.30;;;;;;5011608;28;20802;-72
2022/02/01 16:24:45;;;;;;;2.33;0.70;;;1.00;96.30;;;;;;5011904;28;20169;-71
2022/02/01 16:27:11;;;;;;;0.80;0.60;;;1.00;96.30;;;;;;5012025;28;20212;-72
2022/02/01 16:29:36;;;;;;;0.90;0.60;;;1.00;96.30;;;;;;5011951;28;20169;-71
2022/02/01 16:32:03;;;;;;;0.87;0.70;;;0.90;96.30;;;;;;5011873;28;20743;-72
2022/02/01 16:34:28;;;;;;;1.00;0.70;;;0.90;96.30;;;;;;5011684;28;20176;-72
2022/02/01 16:36:55;;;;;;;1.30;0.83;;;0.90;96.30;;;;;;5011967;28;20503;-71
2022/02/01 16:39:20;;;;;;;1.00;0.77;;;0.80;96.30;;;;;;5011978;28;20537;-72
2022/02/01 16:41:53;;;;;;;3.20;2.30;;;0.70;96.30;;;;;;5011901;28;20503;-71
2022/02/01 16:44:18;;;;;;;4.40;2.23;;;0.60;96.30;;;;;;5011646;28;20169;-71
2022/02/01 16:46:44;;;;;;;8.13;5.00;;;0.50;96.30;;;;;;5011722;28;21156;-71
2022/02/01 16:49:11;;;;;;;1.33;0.80;;;0.50;96.30;;;;;;5011896;28;20188;-72
2022/02/01 16:51:38;;;;;;;7.60;4.87;;;0.50;96.30;;;;;;5011709;28;20272;-71
2022/02/01 16:54:09;;;;;;;1.90;1.50;;;0.50;96.30;;;;;;5011840;28;20844;-72
2022/02/01 16:56:41;;;;;;;1.23;0.77;;;0.50;96.30;;;;;;5010301;28;20470;-72
2022/02/01 16:59:24;;;;;;;2.50;1.43;;;0.50;96.30;;;;;;5011712;28;20415;-72
2022/02/01 17:01:51;;;;;;;5.20;0.90;;;0.40;96.30;;;;;;5010374;28;20447;-72
2022/02/01 17:04:17;;;;;;;0.90;0.70;;;0.40;96.30;;;;;;5011355;28;20440;-73
2022/02/01 17:06:44;;;;;;;8.10;0.80;;;0.40;96.30;;;;;;5013776;28;21166;-72
2022/02/01 17:09:11;;;;;;;1.07;0.60;;;0.40;96.30;;;;;;5015160;28;20443;-73
2022/02/01 17:14:49;;;;;;;0.90;0.70;;;0.50;96.30;;;;;;5015526;28;20460;-73
2022/02/01 17:17:24;;;;;;;0.90;0.70;;;0.50;96.30;;;;;;5015167;28;20912;-73
2022/02/01 17:22:34;;;;;;;0.80;0.50;;;0.50;96.30;;;;;;5248994;23;20883;-73
2022/02/01 17:25:00;;;;;;;0.80;0.50;;;0.40;96.30;;;;;;5031914;28;20498;-74
2022/02/01 17:27:25;;;;;;;3.13;0.77;;;0.40;96.30;;;;;;5034689;28;20171;-73
2022/02/01 17:29:51;;;;;;;0.90;0.60;;;0.40;96.30;;;;;;5034707;28;20226;-73
2022/02/01 17:32:17;;;;;;;1.20;0.70;;;0.40;96.30;;;;;;5030232;28;20188;-74
2022/02/01 17:34:42;;;;;;;0.80;0.50;;;0.40;96.30;;;;;;5033808;28;20426;-73
2022/02/01 17:37:09;;;;;;;1.00;0.60;;;0.40;96.30;;;;;;5033130;28;20180;-73
2022/02/01 17:39:35;;;;;;;1.10;0.90;;;0.40;96.30;;;;;;5033312;28;20250;-73
2022/02/01 17:42:00;;;;;;;0.90;0.80;;;0.50;96.30;;;;;;5048659;28;20463;-73
2022/02/01 17:44:26;;;;;;;2.47;1.00;;;0.50;96.30;;;;;;5053598;28;20178;-73
2022/02/01 17:46:51;;;;;;;1.10;0.90;;;0.50;96.30;;;;;;5053926;28;20188;-74
2022/02/01 17:49:18;;;;;;;1.60;1.30;;;0.50;96.30;;;;;;5053303;28;20171;-73
2022/02/01 17:54:37;;;;;;;1.10;0.80;;;0.60;96.30;;;;;;5030150;28;20910;-73
2022/02/01 17:57:03;;;;;;;2.63;1.80;;;0.60;96.30;;;;;;5054142;28;20417;-73
2022/02/01 17:59:28;;;;;;;4.10;2.70;;;0.50;96.30;;;;;;5040858;28;20795;-73
2022/02/01 18:01:54;;;;;;;1.10;0.80;;;0.50;96.30;;;;;;5060775;28;20203;-74
2022/02/01 18:04:20;;;;;;;0.80;0.50;;;0.50;96.30;;;;;;5041839;28;20187;-74
2022/02/01 18:06:48;;;;;;;2.37;1.77;;;0.60;96.30;;;;;;5033837;28;20430;-74
2022/02/01 18:09:13;;;;;;;3.10;2.30;;;0.70;96.30;;;;;;5041077;28;20937;-77
2022/02/01 18:12:28;;;;;;;4.80;1.70;;;0.60;96.30;;;;;;5035625;28;20434;-75
2022/02/01 18:17:04;;;;;;;2.60;1.60;;;0.60;96.30;;;;;;5033996;28;20437;-75
2022/02/01 18:19:37;;;;;;;4.10;2.13;;;0.70;96.30;;;;;;5033456;28;20411;-75
2022/02/01 18:22:07;;;;;;;1.77;1.00;;;0.70;96.30;;;;;;5033663;28;20459;-75
2022/02/01 18:24:34;;;;;;;3.90;1.73;;;0.90;96.30;;;;;;5033023;28;20415;-75
2022/02/01 18:27:01;;;;;;;3.00;1.40;;;0.90;96.30;;;;;;5033619;28;20820;-75
2022/02/01 18:29:28;;;;;;;1.57;1.23;;;0.90;96.30;;;;;;5033608;28;20410;-75
2022/02/01 18:31:54;;;;;;;1.83;0.90;;;0.90;96.30;;;;;;5033401;28;20480;-74
2022/02/01 18:34:19;;;;;;;4.07;2.50;;;0.90;96.30;;;;;;5031871;28;20423;-75
2022/02/01 18:36:47;;;;;;;2.00;1.27;;;0.90;96.30;;;;;;5035284;28;20186;-75
2022/02/01 18:39:19;;;;;;;2.63;1.73;;;0.90;96.30;;;;;;5053523;28;20203;-76
2022/02/01 18:41:45;;;;;;;2.13;1.30;;;0.90;96.30;;;;;;5052962;28;20441;-75
2022/02/01 18:44:14;;;;;;;4.27;2.67;;;0.80;96.30;;;;;;5053273;28;20402;-74
2022/02/01 18:46:55;;;;;;;4.20;3.43;;;0.80;96.30;;;;;;5052777;28;20187;-74
2022/02/01 18:49:37;;;;;;;0.90;0.70;;;0.90;96.30;;;;;;5035356;28;20909;-74
2022/02/01 18:52:46;;;;;;;1.53;1.30;;;0.90;96.30;;;;;;5035187;28;21074;-72
2022/02/01 18:58:10;;;;;;;3.77;1.00;;;1.10;96.30;;;;;;5029357;28;20886;-73
2022/02/01 19:03:53;;;;;;;3.70;2.77;;;1.10;96.30;;;;;;5053121;28;20409;-73
2022/02/01 19:06:34;;;;;;;1.20;1.10;;;1.10;96.30;;;;;;5054911;28;20199;-74
2022/02/01 19:11:49;;;;;;;3.97;1.53;;;1.20;96.30;;;;;;5059359;28;20523;-73
2022/02/01 19:14:19;;;;;;;2.80;1.40;;;1.40;96.30;;;;;;5039177;28;20775;-73
2022/02/01 19:16:46;;;;;;;1.10;0.97;;;1.40;96.30;;;;;;5048013;28;20502;-73
2022/02/01 19:19:12;;;;;;;1.00;0.70;;;1.40;96.30;;;;;;5052042;28;20418;-74
2022/02/01 19:21:40;;;;;;;0.90;0.70;;;1.30;96.30;;;;;;5051512;28;20520;-73
2022/02/01 19:24:07;;;;;;;2.70;0.80;;;1.40;96.30;;;;;;5056582;28;20414;-73
2022/02/01 19:26:36;;;;;;;1.97;1.30;;;1.30;96.30;;;;;;5052064;28;20985;-72
2022/02/01 19:29:08;;;;;;;1.50;1.13;;;1.30;96.30;;;;;;5056609;28;20398;-74
2022/02/01 19:31:44;;;;;;;0.80;0.60;;;1.40;96.30;;;;;;5050966;28;20438;-73
2022/02/01 19:34:15;;;;;;;1.07;0.60;;;1.40;96.30;;;;;;5051202;28;20413;-73
2022/02/01 19:36:42;;;;;;;0.83;0.60;;;1.50;96.30;;;;;;5051485;28;20788;-74
2022/02/01 19:39:10;;;;;;;3.90;1.50;;;1.50;96.30;;;;;;5052207;28;20451;-72
2022/02/01 19:41:37;;;;;;;1.67;1.17;;;1.40;96.30;;;;;;5051859;28;20799;-72
2022/02/01 19:44:08;;;;;;;1.40;1.30;;;1.40;96.30;;;;;;5052173;28;20418;-72
2022/02/01 19:46:34;;;;;;;1.00;0.70;;;1.50;96.30;;;;;;5033958;28;20472;-72
2022/02/01 19:49:02;;;;;;;1.30;0.90;;;1.50;96.30;;;;;;5052074;28;20449;-72
2022/02/01 19:51:30;;;;;;;2.43;1.00;;;1.50;96.30;;;;;;5052002;28;20697;-72
2022/02/01 19:53:57;;;;;;;1.07;0.90;;;1.40;96.30;;;;;;5033973;28;20505;-72
2022/02/01 19:56:34;;;;;;;1.23;0.87;;;1.40;96.30;;;;;;5051652;28;20410;-72
2022/02/01 19:59:08;;;;;;;1.37;0.90;;;1.30;96.30;;;;;;5052023;28;20441;-72
2022/02/01 20:01:42;;;;;;;1.87;0.90;;;1.30;96.30;;;;;;5034110;28;20445;-71
2022/02/01 20:04:11;;;;;;;2.83;1.07;;;1.30;96.30;;;;;;5051942;28;20413;-71
2022/02/01 20:06:40;;;;;;;1.13;0.80;;;1.20;96.30;;;;;;5033948;28;20493;-71
2022/02/01 20:09:11;;;;;;;2.10;0.80;;;1.30;96.30;;;;;;5051786;28;20513;-72
2022/02/01 20:11:43;;;;;;;0.90;0.67;;;1.30;96.30;;;;;;5051701;28;20510;-72
2022/02/01 20:14:09;;;;;;;1.00;0.90;;;1.30;96.30;;;;;;5051620;28;20414;-72
2022/02/01 20:16:36;;;;;;;1.10;0.80;;;1.30;96.30;;;;;;5051582;28;20418;-71
2022/02/01 20:19:03;;;;;;;1.00;0.80;;;1.30;96.30;;;;;;5051770;28;20172;-72
2022/02/01 20:21:28;;;;;;;1.87;0.90;;;1.20;96.30;;;;;;5051766;28;20540;-72
2022/02/01 20:23:54;;;;;;;1.20;0.90;;;1.20;96.30;;;;;;5051969;28;20821;-74
2022/02/01 20:26:20;;;;;;;1.30;0.90;;;1.20;96.30;;;;;;5051372;28;20199;-71
2022/02/01 20:28:45;;;;;;;1.67;0.70;;;1.20;96.30;;;;;;5033848;28;20176;-71
2022/02/01 20:31:11;;;;;;;1.00;0.80;;;1.20;96.30;;;;;;5051510;28;20195;-71
2022/02/01 20:33:41;;;;;;;0.90;0.80;;;1.20;96.30;;;;;;5051485;28;20631;-72
2022/02/01 20:36:08;;;;;;;1.10;0.80;;;1.20;96.30;;;;;;5033455;28;20186;-71
2022/02/01 20:38:38;;;;;;;1.53;0.90;;;1.20;96.30;;;;;;5051631;28;20418;-72
2022/02/01 20:41:04;;;;;;;1.00;0.80;;;1.20;96.30;;;;;;5053066;28;20484;-71
2022/02/01 20:43:29;;;;;;;1.30;1.10;;;1.20;96.30;;;;;;5055503;28;20445;-71